createdAt,value
2022-08-19T00:01:59.532Z,16.47
2022-08-19T00:04:34.026Z,16.53
2022-08-19T00:07:02.747Z,16.03
2022-08-19T00:09:29.692Z,18.03
2022-08-19T00:11:58.794Z,18.00
2022-08-19T00:14:27.285Z,17.37
2022-08-19T00:16:55.410Z,18.83
2022-08-19T00:19:23.403Z,18.60
2022-08-19T00:21:50.411Z,19.07
2022-08-19T00:24:17.270Z,19.43
2022-08-19T00:26:44.986Z,18.97
2022-08-19T00:29:13.085Z,18.97
2022-08-19T00:31:39.885Z,19.00
2022-08-19T00:34:06.409Z,19.23
2022-08-19T00:36:34.055Z,21.10
2022-08-19T00:39:01.753Z,20.10
2022-08-19T00:41:29.124Z,20.33
2022-08-19T00:44:06.618Z,19.73
2022-08-19T00:46:37.544Z,20.57
2022-08-19T00:49:10.720Z,20.30
2022-08-19T00:51:37.407Z,22.07
2022-08-19T00:54:04.715Z,19.60
2022-08-19T00:56:31.992Z,21.40
2022-08-19T00:59:00.435Z,20.87
2022-08-19T01:01:27.393Z,21.90
2022-08-19T01:03:56.903Z,20.10
2022-08-19T01:06:26.423Z,19.03
2022-08-19T01:08:53.214Z,19.77
2022-08-19T01:11:19.860Z,21.37
2022-08-19T01:13:49.084Z,20.83
2022-08-19T01:16:19.262Z,23.17
2022-08-19T01:18:46.076Z,24.27
2022-08-19T01:21:38.780Z,22.27
2022-08-19T01:24:05.547Z,22.73
2022-08-19T01:26:32.116Z,23.20
2022-08-19T01:29:02.141Z,22.93
2022-08-19T01:31:32.894Z,23.53
2022-08-19T01:34:01.282Z,21.47
2022-08-19T01:36:36.502Z,26.83
2022-08-19T01:39:06.557Z,24.30
2022-08-19T01:41:33.414Z,25.83
2022-08-19T01:44:13.411Z,25.70
2022-08-19T01:46:46.124Z,28.03
2022-08-19T01:49:12.650Z,26.77
2022-08-19T01:51:40.292Z,25.73
2022-08-19T01:54:09.264Z,25.73
2022-08-19T01:56:36.113Z,23.77
2022-08-19T01:59:09.408Z,23.40
2022-08-19T02:01:36.472Z,23.17
2022-08-19T02:04:03.370Z,23.07
2022-08-19T02:06:30.656Z,23.67
2022-08-19T02:08:57.904Z,23.97
2022-08-19T02:11:36.406Z,22.23
2022-08-19T02:14:07.458Z,22.83
2022-08-19T02:16:34.158Z,22.50
2022-08-19T02:19:04.153Z,22.70
2022-08-19T02:21:31.546Z,21.27
2022-08-19T02:23:58.514Z,20.80
2022-08-19T02:26:27.456Z,21.53
2022-08-19T02:28:55.580Z,23.43
2022-08-19T02:31:25.644Z,22.47
2022-08-19T02:33:53.352Z,21.90
2022-08-19T02:36:24.090Z,23.60
2022-08-19T02:38:54.871Z,22.47
2022-08-19T02:41:27.335Z,24.23
2022-08-19T02:44:29.823Z,21.43
2022-08-19T02:46:42.310Z,24.70
2022-08-19T02:49:09.322Z,23.97
2022-08-19T02:51:41.740Z,23.37
2022-08-19T02:54:11.146Z,23.17
2022-08-19T02:56:39.731Z,24.60
2022-08-19T02:59:09.312Z,25.50
2022-08-19T03:01:38.662Z,22.97
2022-08-19T03:04:07.729Z,22.20
2022-08-19T03:06:38.006Z,26.17
2022-08-19T03:09:05.049Z,24.00
2022-08-19T03:11:33.302Z,24.80
2022-08-19T03:14:01.887Z,25.47
2022-08-19T03:16:33.434Z,24.57
2022-08-19T03:19:02.268Z,25.27
2022-08-19T03:21:32.696Z,25.40
2022-08-19T03:24:05.680Z,24.10
2022-08-19T03:26:32.368Z,25.90
2022-08-19T03:29:04.959Z,24.47
2022-08-19T03:31:41.548Z,21.07
2022-08-19T03:34:13.470Z,21.13
2022-08-19T03:36:40.284Z,18.63
2022-08-19T03:39:06.819Z,18.53
2022-08-19T03:41:45.196Z,16.17
2022-08-19T03:44:20.609Z,16.53
2022-08-19T03:46:52.978Z,14.03
2022-08-19T03:49:20.993Z,12.63
2022-08-19T03:51:49.353Z,11.53
2022-08-19T03:54:19.790Z,12.20
2022-08-19T03:56:49.941Z,12.33
2022-08-19T03:59:29.503Z,12.00
2022-08-19T04:01:58.144Z,12.73
2022-08-19T04:04:25.640Z,12.93
2022-08-19T04:06:56.541Z,12.07
2022-08-19T04:09:23.106Z,11.00
2022-08-19T04:11:56.232Z,11.43
2022-08-19T04:14:31.245Z,10.80
2022-08-19T04:16:59.998Z,12.73
2022-08-19T04:19:27.830Z,11.30
2022-08-19T04:21:56.190Z,10.67
2022-08-19T04:24:23.590Z,11.00
2022-08-19T04:26:51.002Z,10.37
2022-08-19T04:29:25.978Z,11.17
2022-08-19T04:31:55.109Z,10.97
2022-08-19T04:34:23.629Z,10.80
2022-08-19T04:36:52.139Z,10.43
2022-08-19T04:39:22.598Z,10.23
2022-08-19T04:42:07.785Z,10.07
2022-08-19T04:44:46.158Z,9.90
2022-08-19T04:47:13.212Z,9.17
2022-08-19T04:49:39.870Z,9.77
2022-08-19T04:52:06.453Z,9.83
2022-08-19T04:54:38.211Z,8.83
2022-08-19T04:57:11.293Z,8.30
2022-08-19T04:59:39.758Z,9.20
2022-08-19T05:02:08.688Z,8.70
2022-08-19T05:04:36.272Z,10.10
2022-08-19T05:07:03.173Z,10.30
2022-08-19T05:09:53.288Z,10.20
2022-08-19T05:12:18.778Z,8.40
2022-08-19T05:14:47.044Z,9.00
2022-08-19T05:17:33.497Z,9.47
2022-08-19T05:20:19.710Z,9.33
2022-08-19T05:22:48.393Z,8.80
2022-08-19T05:25:20.112Z,9.60
2022-08-19T05:27:47.384Z,8.67
2022-08-19T05:30:14.436Z,8.77
2022-08-19T05:32:41.743Z,8.43
2022-08-19T05:35:09.025Z,9.07
2022-08-19T05:37:35.649Z,8.50
2022-08-19T05:40:02.612Z,8.90
2022-08-19T05:42:29.304Z,8.40
2022-08-19T05:44:57.691Z,8.70
2022-08-19T05:47:24.290Z,7.73
2022-08-19T05:49:52.305Z,8.07
2022-08-19T05:52:26.166Z,7.90
2022-08-19T05:54:55.972Z,7.80
2022-08-19T05:57:23.985Z,8.07
2022-08-19T05:59:53.232Z,7.07
2022-08-19T06:02:26.980Z,6.43
2022-08-19T06:04:53.615Z,6.87
2022-08-19T06:07:20.618Z,7.00
2022-08-19T06:09:58.973Z,7.53
2022-08-19T06:12:32.478Z,7.33
2022-08-19T06:15:01.529Z,6.83
2022-08-19T06:17:31.732Z,6.57
2022-08-19T06:19:59.571Z,6.67
2022-08-19T06:22:26.861Z,6.20
2022-08-19T06:24:54.915Z,6.77
2022-08-19T06:27:22.493Z,6.50
2022-08-19T06:29:49.084Z,5.60
2022-08-19T06:32:17.647Z,6.00
2022-08-19T06:34:44.326Z,7.80
2022-08-19T06:37:12.728Z,7.03
2022-08-19T06:39:41.436Z,6.27
2022-08-19T06:42:11.125Z,6.33
2022-08-19T06:44:43.131Z,5.80
2022-08-19T06:47:23.835Z,7.60
2022-08-19T06:50:01.247Z,6.13
2022-08-19T06:52:34.899Z,6.83
2022-08-19T06:55:06.325Z,4.93
2022-08-19T06:57:33.916Z,6.30
2022-08-19T07:00:01.145Z,6.63
2022-08-19T07:02:27.745Z,6.27
2022-08-19T07:04:54.399Z,7.47
2022-08-19T07:07:22.043Z,7.00
2022-08-19T07:09:59.995Z,7.70
2022-08-19T07:12:35.662Z,7.63
2022-08-19T07:15:06.417Z,7.73
2022-08-19T07:17:34.589Z,8.90
2022-08-19T07:20:06.739Z,7.67
2022-08-19T07:22:35.039Z,8.63
2022-08-19T07:25:03.960Z,8.67
2022-08-19T07:27:30.811Z,10.00
2022-08-19T07:30:00.565Z,9.07
2022-08-19T07:32:27.869Z,9.40
2022-08-19T07:34:55.323Z,9.27
2022-08-19T07:37:24.217Z,9.07
2022-08-19T07:39:50.785Z,8.60
2022-08-19T07:42:19.071Z,7.43
2022-08-19T07:44:49.978Z,8.60
2022-08-19T07:47:50.463Z,8.93
2022-08-19T07:50:08.817Z,7.80
2022-08-19T07:52:36.943Z,9.63
2022-08-19T07:55:05.140Z,9.57
2022-08-19T07:57:31.816Z,8.80
2022-08-19T07:59:58.381Z,9.37
2022-08-19T08:02:24.947Z,8.57
2022-08-19T08:05:10.120Z,9.90
2022-08-19T08:07:55.423Z,9.10
2022-08-19T08:10:24.489Z,8.23
2022-08-19T08:13:08.835Z,10.47
2022-08-19T08:15:42.637Z,9.10
2022-08-19T08:18:11.076Z,9.73
2022-08-19T08:20:37.685Z,10.13
2022-08-19T08:23:23.044Z,8.43
2022-08-19T08:25:50.503Z,10.33
2022-08-19T08:28:18.544Z,10.53
2022-08-19T08:30:49.039Z,10.37
2022-08-19T08:33:33.967Z,10.77
2022-08-19T08:36:11.952Z,11.20
2022-08-19T08:38:40.544Z,11.90
2022-08-19T08:41:23.483Z,12.20
2022-08-19T08:43:54.102Z,12.83
2022-08-19T08:46:31.496Z,13.20
2022-08-19T08:49:01.907Z,13.57
2022-08-19T08:51:37.987Z,12.40
2022-08-19T08:54:09.781Z,13.07
2022-08-19T08:56:39.770Z,13.60
2022-08-19T08:59:13.838Z,12.80
2022-08-19T09:01:40.627Z,13.77
2022-08-19T09:04:08.578Z,13.73
2022-08-19T09:06:53.055Z,13.70
2022-08-19T09:09:35.874Z,15.70
2022-08-19T09:12:26.729Z,14.57
2022-08-19T09:14:56.829Z,15.07
2022-08-19T09:17:36.341Z,15.85
2022-08-19T09:20:11.391Z,14.97
2022-08-19T09:22:40.326Z,16.13
2022-08-19T09:25:10.314Z,15.67
2022-08-19T09:27:42.245Z,15.63
2022-08-19T09:30:15.130Z,16.93
2022-08-19T09:32:44.142Z,16.20
2022-08-19T09:35:17.683Z,16.10
2022-08-19T09:37:44.547Z,16.10
2022-08-19T09:40:12.835Z,16.87
2022-08-19T09:42:49.915Z,14.97
2022-08-19T09:45:21.402Z,16.27
2022-08-19T09:47:48.792Z,16.30
2022-08-19T09:50:16.303Z,17.37
2022-08-19T09:52:53.926Z,15.93
2022-08-19T09:55:31.268Z,16.50
2022-08-19T09:57:59.933Z,16.87
2022-08-19T10:00:27.741Z,15.83
2022-08-19T10:02:54.307Z,15.57
2022-08-19T10:05:42.387Z,16.67
2022-08-19T10:08:13.348Z,16.90
2022-08-19T10:10:44.156Z,18.17
2022-08-19T10:13:15.386Z,17.03
2022-08-19T10:15:47.415Z,15.37
2022-08-19T10:18:15.702Z,16.77
2022-08-19T10:20:43.376Z,15.63
2022-08-19T10:23:10.394Z,15.27
2022-08-19T10:25:37.001Z,16.40
2022-08-19T10:28:10.622Z,16.00
2022-08-19T10:30:37.806Z,18.17
2022-08-19T10:33:08.484Z,18.63
2022-08-19T10:35:42.662Z,18.97
2022-08-19T10:38:31.444Z,17.50
2022-08-19T10:41:07.612Z,17.40
2022-08-19T10:43:37.100Z,16.67
2022-08-19T10:46:04.889Z,16.83
2022-08-19T10:48:36.787Z,15.77
2022-08-19T10:51:23.446Z,18.10
2022-08-19T10:53:51.673Z,15.40
2022-08-19T10:56:37.389Z,17.13
2022-08-19T10:59:04.433Z,16.60
2022-08-19T11:01:34.260Z,17.70
2022-08-19T11:04:02.558Z,14.63
2022-08-19T11:06:29.232Z,17.87
2022-08-19T11:08:55.971Z,15.53
2022-08-19T11:11:23.332Z,16.93
2022-08-19T11:13:50.968Z,15.93
2022-08-19T11:16:21.261Z,17.53
2022-08-19T11:18:53.420Z,17.37
2022-08-19T11:21:26.624Z,16.93
2022-08-19T11:23:57.195Z,17.70
2022-08-19T11:26:24.259Z,16.63
2022-08-19T11:28:54.742Z,16.03
2022-08-19T11:31:24.099Z,14.70
2022-08-19T11:33:58.322Z,16.77
2022-08-19T11:36:24.941Z,15.23
2022-08-19T11:38:51.859Z,14.23
2022-08-19T11:41:21.365Z,17.07
2022-08-19T11:43:48.420Z,15.20
2022-08-19T11:46:16.752Z,16.60
2022-08-19T11:48:44.314Z,16.53
2022-08-19T11:51:15.557Z,16.07
2022-08-19T11:53:42.459Z,17.50
2022-08-19T11:56:10.788Z,17.53
2022-08-19T11:58:37.674Z,16.13
2022-08-19T12:01:12.381Z,15.17
2022-08-19T12:03:39.797Z,17.07
2022-08-19T12:06:11.949Z,14.27
2022-08-19T12:08:44.226Z,16.03
2022-08-19T12:11:12.691Z,14.70
2022-08-19T12:13:39.874Z,15.60
2022-08-19T12:16:16.665Z,15.93
2022-08-19T12:18:47.514Z,14.80
2022-08-19T12:21:15.869Z,15.40
2022-08-19T12:23:43.456Z,16.83
2022-08-19T12:26:11.398Z,17.27
2022-08-19T12:28:38.665Z,16.47
2022-08-19T12:31:05.580Z,17.33
2022-08-19T12:33:33.054Z,17.33
2022-08-19T12:36:08.233Z,16.17
2022-08-19T12:38:38.365Z,17.23
2022-08-19T12:41:08.018Z,18.07
2022-08-19T12:43:38.772Z,18.00
2022-08-19T12:46:07.200Z,17.33
2022-08-19T12:48:38.439Z,16.60
2022-08-19T12:51:11.805Z,15.70
2022-08-19T12:53:39.122Z,16.30
2022-08-19T12:56:07.630Z,14.43
2022-08-19T12:58:38.801Z,13.23
2022-08-19T13:01:15.615Z,13.60
2022-08-19T13:03:47.231Z,13.97
2022-08-19T13:06:14.787Z,13.80
2022-08-19T13:08:46.521Z,14.93
2022-08-19T13:11:18.458Z,13.13
2022-08-19T13:13:47.906Z,14.00
2022-08-19T13:16:15.751Z,12.83
2022-08-19T13:18:44.953Z,13.50
2022-08-19T13:21:14.412Z,16.00
2022-08-19T13:23:41.915Z,15.23
2022-08-19T13:26:09.959Z,16.47
2022-08-19T13:28:55.130Z,15.37
2022-08-19T13:31:42.259Z,16.10
2022-08-19T13:34:09.136Z,17.10
2022-08-19T13:36:37.189Z,16.93
2022-08-19T13:39:04.689Z,15.50
2022-08-19T13:41:31.984Z,15.57
2022-08-19T13:43:58.621Z,13.80
2022-08-19T13:46:25.170Z,14.07
2022-08-19T13:48:51.716Z,14.87
2022-08-19T13:51:18.891Z,12.60
2022-08-19T13:53:48.012Z,13.10
2022-08-19T13:56:17.550Z,14.13
2022-08-19T13:58:44.455Z,12.80
2022-08-19T14:01:11.679Z,12.40
2022-08-19T14:03:39.520Z,14.00
2022-08-19T14:06:06.280Z,11.70
2022-08-19T14:08:33.671Z,12.20
2022-08-19T14:11:00.602Z,12.40
2022-08-19T14:13:34.673Z,12.13
2022-08-19T14:16:01.236Z,11.63
2022-08-19T14:18:28.695Z,13.30
2022-08-19T14:20:57.830Z,11.50
2022-08-19T14:23:25.702Z,12.30
2022-08-19T14:25:52.373Z,12.93
2022-08-19T14:28:19.096Z,12.53
2022-08-19T14:30:45.748Z,11.40
2022-08-19T14:33:12.606Z,9.17
2022-08-19T14:35:39.209Z,10.20
2022-08-19T14:38:06.922Z,8.43
2022-08-19T14:40:33.629Z,10.00
2022-08-19T14:43:04.890Z,9.70
2022-08-19T14:45:37.452Z,10.87
2022-08-19T14:48:05.746Z,11.80
2022-08-19T14:50:32.981Z,10.17
2022-08-19T14:53:11.970Z,10.00
2022-08-19T14:55:43.967Z,9.23
2022-08-19T14:58:10.640Z,8.43
2022-08-19T15:00:57.293Z,8.83
2022-08-19T15:03:23.822Z,9.30
2022-08-19T15:05:50.382Z,11.60
2022-08-19T15:08:16.982Z,10.83
2022-08-19T15:10:43.602Z,9.67
2022-08-19T15:13:10.415Z,9.77
2022-08-19T15:15:36.965Z,8.67
2022-08-19T15:18:04.877Z,8.23
2022-08-19T15:20:32.000Z,9.57
2022-08-19T15:23:01.835Z,9.80
2022-08-19T15:25:28.739Z,8.37
2022-08-19T15:27:55.540Z,8.50
2022-08-19T15:30:26.430Z,9.20
2022-08-19T15:32:55.811Z,10.63
2022-08-19T15:35:24.471Z,10.27
2022-08-19T15:37:52.247Z,10.17
2022-08-19T15:40:20.115Z,8.37
2022-08-19T15:42:47.408Z,8.40
2022-08-19T15:45:14.995Z,8.10
2022-08-19T15:47:41.761Z,7.60
2022-08-19T15:50:23.972Z,7.70
2022-08-19T15:52:53.666Z,7.63
2022-08-19T15:55:33.335Z,7.37
2022-08-19T15:58:40.271Z,6.93
2022-08-19T16:01:27.633Z,6.40
2022-08-19T16:04:15.785Z,6.20
2022-08-19T16:06:49.174Z,5.87
2022-08-19T16:09:17.543Z,7.73
2022-08-19T16:11:46.508Z,7.10
2022-08-19T16:14:18.629Z,7.00
2022-08-19T16:16:47.289Z,6.80
2022-08-19T16:19:17.032Z,7.33
2022-08-19T16:21:46.383Z,7.20
2022-08-19T16:24:14.608Z,8.77
2022-08-19T16:26:42.527Z,9.10
2022-08-19T16:29:12.251Z,8.67
2022-08-19T16:31:43.346Z,7.73
2022-08-19T16:34:11.208Z,7.33
2022-08-19T16:36:40.789Z,7.70
2022-08-19T16:39:09.044Z,7.23
2022-08-19T16:41:37.608Z,8.70
2022-08-19T16:44:06.104Z,8.50
2022-08-19T16:46:32.683Z,8.60
2022-08-19T16:48:59.592Z,9.17
2022-08-19T16:51:26.237Z,10.50
2022-08-19T16:53:53.437Z,10.17
2022-08-19T16:56:21.483Z,10.13
2022-08-19T16:58:50.514Z,8.93
2022-08-19T17:01:18.288Z,9.90
2022-08-19T17:03:45.022Z,9.00
2022-08-19T17:06:26.529Z,11.23
2022-08-19T17:08:56.704Z,9.67
2022-08-19T17:11:24.514Z,11.70
2022-08-19T17:13:51.410Z,9.40
2022-08-19T17:16:25.047Z,10.40
2022-08-19T17:18:56.054Z,10.10
2022-08-19T17:21:25.625Z,10.07
2022-08-19T17:23:52.149Z,10.87
2022-08-19T17:26:19.023Z,10.17
2022-08-19T17:28:50.968Z,9.30
2022-08-19T17:31:20.135Z,9.93
2022-08-19T17:33:48.440Z,9.87
2022-08-19T17:36:26.717Z,10.07
2022-08-19T17:38:55.595Z,9.37
2022-08-19T17:41:24.543Z,9.73
2022-08-19T17:43:51.896Z,10.70
2022-08-19T17:46:20.270Z,10.87
2022-08-19T17:48:57.014Z,10.17
2022-08-19T17:51:35.975Z,11.07
2022-08-19T17:54:05.561Z,10.87
2022-08-19T17:56:32.758Z,11.77
2022-08-19T17:59:01.631Z,11.33
2022-08-19T18:01:32.021Z,11.83
2022-08-19T18:04:17.373Z,12.30
2022-08-19T18:06:46.053Z,12.53
2022-08-19T18:09:38.632Z,12.60
2022-08-19T18:12:09.995Z,13.20
2022-08-19T18:14:37.966Z,12.83
2022-08-19T18:17:14.063Z,14.17
2022-08-19T18:19:44.087Z,11.90
2022-08-19T18:22:27.605Z,12.70
2022-08-19T18:24:56.133Z,11.87
2022-08-19T18:27:23.226Z,12.63
2022-08-19T18:29:49.932Z,12.37
2022-08-19T18:32:23.575Z,12.30
2022-08-19T18:34:51.278Z,11.83
2022-08-19T18:37:18.319Z,11.77
2022-08-19T18:40:04.219Z,12.67
2022-08-19T18:42:50.124Z,12.10
2022-08-19T18:45:35.569Z,12.50
2022-08-19T18:48:23.960Z,12.30
2022-08-19T18:50:56.102Z,12.70
2022-08-19T18:53:22.665Z,14.97
2022-08-19T18:55:51.948Z,16.83
2022-08-19T18:58:20.134Z,15.70
2022-08-19T19:00:48.721Z,16.77
2022-08-19T19:03:15.784Z,16.23
2022-08-19T19:05:44.469Z,16.47
2022-08-19T19:08:16.717Z,17.17
2022-08-19T19:10:44.010Z,17.43
2022-08-19T19:13:16.866Z,18.93
2022-08-19T19:15:44.344Z,18.20
2022-08-19T19:18:13.896Z,18.43
2022-08-19T19:20:41.693Z,17.97
2022-08-19T19:23:09.175Z,18.40
2022-08-19T19:25:50.423Z,18.27
2022-08-19T19:28:24.381Z,17.97
2022-08-19T19:30:53.560Z,18.10
2022-08-19T19:33:20.880Z,19.77
2022-08-19T19:35:51.304Z,19.83
2022-08-19T19:38:18.968Z,19.20
2022-08-19T19:40:47.905Z,20.07
2022-08-19T19:43:17.617Z,18.93
2022-08-19T19:45:46.287Z,20.23
2022-08-19T19:48:14.921Z,20.20
2022-08-19T19:50:42.592Z,20.60
2022-08-19T19:53:09.445Z,20.43
2022-08-19T19:55:36.503Z,20.87
2022-08-19T19:58:04.656Z,21.00
2022-08-19T20:00:31.267Z,19.73
2022-08-19T20:02:57.842Z,19.90
2022-08-19T20:05:24.676Z,19.97
2022-08-19T20:08:12.506Z,20.20
2022-08-19T20:10:40.899Z,19.83
2022-08-19T20:13:08.735Z,18.67
2022-08-19T20:15:40.305Z,18.50
2022-08-19T20:18:10.299Z,18.13
2022-08-19T20:20:37.007Z,18.50
2022-08-19T20:23:03.551Z,17.90
2022-08-19T20:25:32.187Z,18.90
2022-08-19T20:28:01.381Z,19.97
2022-08-19T20:30:32.083Z,19.13
2022-08-19T20:32:59.856Z,18.80
2022-08-19T20:35:26.858Z,18.93
2022-08-19T20:37:58.056Z,17.97
2022-08-19T20:40:25.698Z,17.97
2022-08-19T20:42:52.305Z,18.63
2022-08-19T20:45:33.222Z,18.10
2022-08-19T20:48:02.682Z,17.87
2022-08-19T20:50:30.626Z,19.30
2022-08-19T20:52:58.381Z,18.10
2022-08-19T20:55:26.580Z,19.20
2022-08-19T20:57:53.646Z,18.03
2022-08-19T21:00:20.520Z,16.80
2022-08-19T21:02:47.455Z,17.80
2022-08-19T21:05:15.038Z,16.47
2022-08-19T21:07:41.684Z,16.77
2022-08-19T21:10:08.928Z,17.67
2022-08-19T21:12:35.669Z,15.53
2022-08-19T21:15:02.438Z,15.40
2022-08-19T21:17:29.010Z,15.47
2022-08-19T21:19:55.579Z,15.50
2022-08-19T21:22:22.198Z,15.63
2022-08-19T21:24:48.921Z,15.10
2022-08-19T21:27:15.428Z,14.17
2022-08-19T21:29:42.290Z,14.70
2022-08-19T21:32:14.053Z,14.63
2022-08-19T21:34:43.950Z,14.47
2022-08-19T21:37:25.397Z,13.93
2022-08-19T21:39:53.648Z,14.33
2022-08-19T21:42:20.873Z,14.07
2022-08-19T21:44:48.134Z,14.30
2022-08-19T21:47:14.700Z,14.33
2022-08-19T21:49:41.898Z,15.40
2022-08-19T21:52:09.357Z,15.40
2022-08-19T21:54:37.618Z,15.63
2022-08-19T21:57:05.121Z,14.93
2022-08-19T21:59:36.898Z,13.73
2022-08-19T22:02:19.095Z,13.33
2022-08-19T22:04:46.677Z,13.00
2022-08-19T22:07:14.438Z,12.53
2022-08-19T22:09:43.694Z,12.63
2022-08-19T22:12:20.992Z,12.10
2022-08-19T22:14:47.531Z,12.40
2022-08-19T22:17:14.692Z,12.63
2022-08-19T22:19:41.412Z,12.60
2022-08-19T22:22:08.062Z,12.23
2022-08-19T22:24:35.296Z,11.97
2022-08-19T22:27:04.199Z,12.30
2022-08-19T22:29:34.027Z,12.93
2022-08-19T22:32:17.799Z,12.47
2022-08-19T22:34:48.145Z,12.43
2022-08-19T22:37:14.694Z,12.37
2022-08-19T22:39:41.401Z,11.83
2022-08-19T22:42:08.057Z,12.17
2022-08-19T22:44:34.809Z,11.40
2022-08-19T22:47:02.260Z,12.17
2022-08-19T22:49:28.818Z,11.90
2022-08-19T22:52:21.498Z,13.23
2022-08-19T22:54:51.979Z,12.57
2022-08-19T22:57:20.383Z,13.40
2022-08-19T22:59:48.760Z,12.67
2022-08-19T23:02:24.628Z,11.53
2022-08-19T23:04:52.010Z,13.03
2022-08-19T23:07:23.630Z,12.20
2022-08-19T23:09:50.684Z,11.17
2022-08-19T23:12:26.530Z,10.73
2022-08-19T23:14:53.089Z,10.40
2022-08-19T23:17:20.558Z,9.73
2022-08-19T23:19:47.193Z,10.30
2022-08-19T23:22:17.211Z,10.37
2022-08-19T23:24:43.767Z,9.93
2022-08-19T23:27:29.516Z,9.93
2022-08-19T23:30:14.582Z,8.87
2022-08-19T23:32:41.110Z,9.43
2022-08-19T23:35:08.229Z,8.77
2022-08-19T23:37:36.048Z,8.43
2022-08-19T23:40:05.047Z,8.80
2022-08-19T23:42:31.654Z,8.57
2022-08-19T23:45:07.219Z,8.87
2022-08-19T23:47:35.003Z,8.80
2022-08-19T23:50:06.074Z,8.57
2022-08-19T23:52:35.158Z,8.77
2022-08-19T23:55:04.278Z,8.10
2022-08-19T23:57:30.793Z,8.10
2022-08-19T23:59:57.376Z,7.90
